createdAt,value
2022-09-18T00:00:14.294Z,-60
2022-09-18T00:02:40.756Z,-60
2022-09-18T00:05:07.562Z,-60
2022-09-18T00:07:33.982Z,-60
2022-09-18T00:10:00.335Z,-60
2022-09-18T00:12:26.729Z,-60
2022-09-18T00:14:53.254Z,-60
2022-09-18T00:17:19.721Z,-60
2022-09-18T00:19:46.190Z,-60
2022-09-18T00:22:12.513Z,-60
2022-09-18T00:24:38.845Z,-60
2022-09-18T00:27:05.321Z,-60
2022-09-18T00:29:31.643Z,-60
2022-09-18T00:31:59.802Z,-60
2022-09-18T00:34:26.192Z,-60
2022-09-18T00:36:52.523Z,-60
2022-09-18T00:39:18.961Z,-60
2022-09-18T00:41:45.431Z,-60
2022-09-18T00:44:31.085Z,-60
2022-09-18T00:47:09.594Z,-60
2022-09-18T00:49:38.835Z,-60
2022-09-18T00:52:06.015Z,-60
2022-09-18T00:54:42.532Z,-60
2022-09-18T00:57:12.711Z,-60
2022-09-18T00:59:42.051Z,-60
2022-09-18T01:02:09.176Z,-60
2022-09-18T01:04:35.561Z,-60
2022-09-18T01:07:10.854Z,-60
2022-09-18T01:09:54.475Z,-60
2022-09-18T01:12:37.596Z,-60
2022-09-18T01:15:06.899Z,-60
2022-09-18T01:17:49.806Z,-60
2022-09-18T01:20:34.977Z,-60
2022-09-18T01:23:31.110Z,-60
2022-09-18T01:26:23.646Z,-60
2022-09-18T01:29:13.869Z,-60
2022-09-18T01:31:48.055Z,-60
2022-09-18T01:34:41.787Z,-60
2022-09-18T01:37:15.503Z,-60
2022-09-18T01:40:24.093Z,-60
2022-09-18T01:42:53.305Z,-60
2022-09-18T01:45:26.295Z,-61
2022-09-18T01:47:57.302Z,-60
2022-09-18T01:50:28.351Z,-60
2022-09-18T01:53:21.304Z,-60
2022-09-18T01:55:55.254Z,-60
2022-09-18T01:58:24.115Z,-60
2022-09-18T02:00:54.090Z,-60
2022-09-18T02:03:25.355Z,-60
2022-09-18T02:05:56.180Z,-60
2022-09-18T02:08:38.557Z,-60
2022-09-18T02:11:13.502Z,-60
2022-09-18T02:13:45.129Z,-60
2022-09-18T02:16:21.647Z,-60
2022-09-18T02:18:53.353Z,-60
2022-09-18T02:21:25.646Z,-60
2022-09-18T02:23:56.727Z,-60
2022-09-18T02:26:24.078Z,-60
2022-09-18T02:28:50.931Z,-60
2022-09-18T02:31:20.281Z,-60
2022-09-18T02:33:46.693Z,-60
2022-09-18T02:36:31.805Z,-60
2022-09-18T02:39:20.157Z,-60
2022-09-18T02:42:01.097Z,-60
2022-09-18T02:44:55.394Z,-60
2022-09-18T02:47:56.231Z,-60
2022-09-18T02:50:49.702Z,-60
2022-09-18T02:53:34.104Z,-60
2022-09-18T02:56:06.430Z,-60
2022-09-18T02:58:57.496Z,-60
2022-09-18T03:01:26.434Z,-60
2022-09-18T03:03:52.843Z,-61
2022-09-18T03:06:19.405Z,-60
2022-09-18T03:08:46.455Z,-61
2022-09-18T03:11:12.850Z,-60
2022-09-18T03:13:39.177Z,-60
2022-09-18T03:16:05.650Z,-61
2022-09-18T03:18:31.982Z,-60
2022-09-18T03:20:58.349Z,-60
2022-09-18T03:23:24.739Z,-60
2022-09-18T03:25:51.770Z,-60
2022-09-18T03:28:18.468Z,-60
2022-09-18T03:30:45.471Z,-60
2022-09-18T03:33:11.870Z,-60
2022-09-18T03:35:38.233Z,-61
2022-09-18T03:38:05.354Z,-60
2022-09-18T03:40:31.732Z,-60
2022-09-18T03:42:58.166Z,-60
2022-09-18T03:45:24.490Z,-60
2022-09-18T03:47:50.895Z,-61
2022-09-18T03:50:17.386Z,-60
2022-09-18T03:52:45.669Z,-60
2022-09-18T03:55:15.886Z,-60
2022-09-18T03:57:42.228Z,-60
2022-09-18T04:00:09.877Z,-60
2022-09-18T04:02:36.268Z,-60
2022-09-18T04:05:04.074Z,-60
2022-09-18T04:07:30.430Z,-60
2022-09-18T04:09:56.742Z,-60
2022-09-18T04:12:23.135Z,-61
2022-09-18T04:14:49.458Z,-61
2022-09-18T04:17:16.559Z,-60
2022-09-18T04:19:42.938Z,-60
2022-09-18T04:22:09.425Z,-60
2022-09-18T04:24:36.315Z,-61
2022-09-18T04:27:02.901Z,-61
2022-09-18T04:29:29.193Z,-60
2022-09-18T04:31:55.529Z,-60
2022-09-18T04:34:21.884Z,-60
2022-09-18T04:36:48.578Z,-60
2022-09-18T04:39:15.068Z,-61
2022-09-18T04:41:41.574Z,-60
2022-09-18T04:44:07.910Z,-60
2022-09-18T04:46:34.359Z,-61
2022-09-18T04:49:00.750Z,-60
2022-09-18T04:51:27.237Z,-61
2022-09-18T04:53:53.559Z,-60
2022-09-18T04:56:19.898Z,-61
2022-09-18T04:58:46.375Z,-60
2022-09-18T05:01:12.808Z,-61
2022-09-18T05:03:39.185Z,-61
2022-09-18T05:06:05.958Z,-61
2022-09-18T05:08:34.393Z,-61
2022-09-18T05:11:01.136Z,-61
2022-09-18T05:13:27.516Z,-61
2022-09-18T05:15:55.854Z,-61
2022-09-18T05:18:23.065Z,-60
2022-09-18T05:20:49.767Z,-60
2022-09-18T05:23:16.188Z,-61
2022-09-18T05:25:43.009Z,-61
2022-09-18T05:28:09.867Z,-61
2022-09-18T05:30:36.473Z,-62
2022-09-18T05:33:07.654Z,-61
2022-09-18T05:35:35.751Z,-61
2022-09-18T05:38:03.995Z,-61
2022-09-18T05:40:35.664Z,-63
2022-09-18T05:43:05.646Z,-62
2022-09-18T05:45:32.262Z,-61
2022-09-18T05:48:01.018Z,-60
2022-09-18T05:50:28.938Z,-61
2022-09-18T05:53:02.350Z,-61
2022-09-18T05:55:31.728Z,-61
2022-09-18T05:57:59.716Z,-61
2022-09-18T06:00:27.421Z,-60
2022-09-18T06:03:00.174Z,-61
2022-09-18T06:05:28.295Z,-60
2022-09-18T06:07:59.530Z,-60
2022-09-18T06:10:26.501Z,-60
2022-09-18T06:13:03.889Z,-61
2022-09-18T06:15:30.343Z,-61
2022-09-18T06:17:56.706Z,-61
2022-09-18T06:20:23.110Z,-60
2022-09-18T06:22:49.474Z,-61
2022-09-18T06:25:19.100Z,-61
2022-09-18T06:27:45.513Z,-61
2022-09-18T06:30:12.448Z,-61
2022-09-18T06:32:38.768Z,-61
2022-09-18T06:35:05.751Z,-63
2022-09-18T06:37:32.111Z,-60
2022-09-18T06:39:58.517Z,-62
2022-09-18T06:42:24.865Z,-63
2022-09-18T06:44:51.179Z,-61
2022-09-18T06:47:17.525Z,-61
2022-09-18T06:49:43.834Z,-61
2022-09-18T06:52:10.167Z,-61
2022-09-18T06:54:36.492Z,-62
2022-09-18T06:57:02.878Z,-61
2022-09-18T06:59:29.327Z,-62
2022-09-18T07:01:55.954Z,-62
2022-09-18T07:04:22.374Z,-63
2022-09-18T07:06:48.692Z,-61
2022-09-18T07:09:15.134Z,-61
2022-09-18T07:11:41.457Z,-60
2022-09-18T07:14:08.293Z,-61
2022-09-18T07:16:35.780Z,-60
2022-09-18T07:19:02.725Z,-60
2022-09-18T07:21:29.410Z,-61
2022-09-18T07:23:55.754Z,-61
2022-09-18T07:26:22.291Z,-62
2022-09-18T07:28:48.885Z,-61
2022-09-18T07:31:15.309Z,-62
2022-09-18T07:33:41.725Z,-61
2022-09-18T07:36:08.241Z,-61
2022-09-18T07:38:35.292Z,-60
2022-09-18T07:41:02.457Z,-61
2022-09-18T07:43:28.903Z,-60
2022-09-18T07:45:55.218Z,-61
2022-09-18T07:48:21.636Z,-60
2022-09-18T07:50:47.977Z,-61
2022-09-18T07:53:14.315Z,-60
2022-09-18T07:55:42.904Z,-60
2022-09-18T07:58:09.488Z,-62
2022-09-18T08:00:37.630Z,-60
2022-09-18T08:03:06.737Z,-60
2022-09-18T08:05:33.221Z,-60
2022-09-18T08:08:07.861Z,-61
2022-09-18T08:10:35.936Z,-60
2022-09-18T08:13:03.750Z,-61
2022-09-18T08:15:31.486Z,-61
2022-09-18T08:17:58.147Z,-61
2022-09-18T08:20:24.747Z,-61
2022-09-18T08:22:51.251Z,-60
2022-09-18T08:25:18.124Z,-61
2022-09-18T08:27:44.922Z,-60
2022-09-18T08:30:14.243Z,-61
2022-09-18T08:32:40.574Z,-61
2022-09-18T08:35:07.335Z,-63
2022-09-18T08:37:33.752Z,-62
2022-09-18T08:40:00.437Z,-62
2022-09-18T08:42:33.299Z,-62
2022-09-18T08:45:07.513Z,-63
2022-09-18T08:47:41.994Z,-63
2022-09-18T08:50:29.042Z,-62
2022-09-18T08:53:20.380Z,-62
2022-09-18T08:55:49.729Z,-64
2022-09-18T08:58:35.323Z,-65
2022-09-18T09:01:15.792Z,-64
2022-09-18T09:04:00.791Z,-65
2022-09-18T09:06:47.587Z,-64
2022-09-18T09:09:37.351Z,-64
2022-09-18T09:12:09.758Z,-65
2022-09-18T09:15:08.536Z,-65
2022-09-18T09:17:40.634Z,-65
2022-09-18T09:20:36.193Z,-65
2022-09-18T09:23:23.096Z,-66
2022-09-18T09:25:55.281Z,-64
2022-09-18T09:28:38.826Z,-65
2022-09-18T09:31:09.102Z,-65
2022-09-18T09:34:27.550Z,-65
2022-09-18T09:36:58.177Z,-66
2022-09-18T09:39:32.704Z,-65
2022-09-18T09:42:05.489Z,-65
2022-09-18T09:44:40.842Z,-66
2022-09-18T09:47:13.319Z,-66
2022-09-18T09:50:06.911Z,-65
2022-09-18T09:52:33.496Z,-66
2022-09-18T09:55:18.462Z,-66
2022-09-18T09:58:19.767Z,-66
2022-09-18T10:01:10.515Z,-66
2022-09-18T10:04:10.689Z,-66
2022-09-18T10:07:03.549Z,-64
2022-09-18T10:10:12.879Z,-67
2022-09-18T10:13:01.560Z,-67
2022-09-18T10:15:39.445Z,-66
2022-09-18T10:18:26.526Z,-66
2022-09-18T10:21:02.326Z,-66
2022-09-18T10:23:38.818Z,-66
2022-09-18T10:26:06.286Z,-65
2022-09-18T10:28:32.930Z,-66
2022-09-18T10:30:59.331Z,-65
2022-09-18T10:33:39.280Z,-65
2022-09-18T10:36:33.399Z,-67
2022-09-18T10:39:00.347Z,-66
2022-09-18T10:41:30.018Z,-66
2022-09-18T10:44:05.725Z,-66
2022-09-18T10:46:35.682Z,-66
2022-09-18T10:49:20.675Z,-66
2022-09-18T10:51:47.072Z,-64
2022-09-18T10:54:18.150Z,-64
2022-09-18T10:56:45.519Z,-64
2022-09-18T10:59:32.776Z,-64
2022-09-18T11:02:01.411Z,-63
2022-09-18T11:04:29.038Z,-64
2022-09-18T11:06:56.932Z,-64
2022-09-18T11:09:35.129Z,-66
2022-09-18T11:12:01.971Z,-64
2022-09-18T11:14:40.418Z,-63
2022-09-18T11:17:13.719Z,-62
2022-09-18T11:19:40.256Z,-63
2022-09-18T11:22:44.170Z,-63
2022-09-18T11:25:26.541Z,-63
2022-09-18T11:27:58.438Z,-65
2022-09-18T11:30:28.281Z,-64
2022-09-18T11:33:00.600Z,-63
2022-09-18T11:35:29.947Z,-63
2022-09-18T11:38:00.501Z,-64
2022-09-18T11:40:45.050Z,-63
2022-09-18T11:43:16.449Z,-63
2022-09-18T11:46:07.487Z,-63
2022-09-18T11:48:49.886Z,-63
2022-09-18T11:51:36.127Z,-63
2022-09-18T11:54:08.284Z,-63
2022-09-18T11:56:40.809Z,-63
2022-09-18T11:59:29.255Z,-63
2022-09-18T12:02:13.900Z,-63
2022-09-18T12:04:49.335Z,-63
2022-09-18T12:07:40.122Z,-62
2022-09-18T12:10:17.433Z,-63
2022-09-18T12:13:12.060Z,-63
2022-09-18T12:15:41.416Z,-63
2022-09-18T12:18:13.079Z,-62
2022-09-18T12:20:55.735Z,-62
2022-09-18T12:23:24.583Z,-63
2022-09-18T12:26:30.112Z,-63
2022-09-18T12:29:31.301Z,-64
2022-09-18T12:32:03.628Z,-65
2022-09-18T12:34:51.451Z,-65
2022-09-18T12:37:52.725Z,-66
2022-09-18T12:40:35.098Z,-65
2022-09-18T12:43:19.770Z,-65
2022-09-18T12:45:58.504Z,-65
2022-09-18T12:49:03.495Z,-65
2022-09-18T12:51:43.177Z,-65
2022-09-18T12:54:21.677Z,-65
2022-09-18T12:57:15.152Z,-65
2022-09-18T13:00:03.154Z,-65
2022-09-18T13:02:51.285Z,-64
2022-09-18T13:05:35.253Z,-64
2022-09-18T13:08:14.658Z,-65
2022-09-18T13:10:47.171Z,-65
2022-09-18T13:13:40.568Z,-64
2022-09-18T13:16:14.492Z,-64
2022-09-18T13:18:51.818Z,-65
2022-09-18T13:21:27.957Z,-63
2022-09-18T13:23:55.372Z,-64
2022-09-18T13:26:25.010Z,-66
2022-09-18T13:28:51.517Z,-65
2022-09-18T13:31:28.444Z,-65
2022-09-18T13:34:07.404Z,-65
2022-09-18T13:36:37.430Z,-63
2022-09-18T13:39:26.951Z,-66
2022-09-18T13:41:55.536Z,-63
2022-09-18T13:44:35.430Z,-63
2022-09-18T13:47:15.944Z,-63
2022-09-18T13:49:55.875Z,-65
2022-09-18T13:52:29.536Z,-65
2022-09-18T13:55:13.555Z,-62
2022-09-18T13:57:41.622Z,-64
2022-09-18T14:00:20.298Z,-64
2022-09-18T14:02:50.977Z,-63
2022-09-18T14:05:36.920Z,-65
2022-09-18T14:08:24.395Z,-63
2022-09-18T14:11:17.311Z,-64
2022-09-18T14:13:51.278Z,-65
2022-09-18T14:16:21.594Z,-66
2022-09-18T14:18:47.960Z,-63
2022-09-18T14:21:17.251Z,-66
2022-09-18T14:23:46.707Z,-64
2022-09-18T14:26:28.343Z,-66
2022-09-18T14:28:57.482Z,-63
2022-09-18T14:31:31.354Z,-63
2022-09-18T14:34:05.282Z,-63
2022-09-18T14:36:54.806Z,-63
2022-09-18T14:39:31.932Z,-62
2022-09-18T14:42:16.896Z,-63
2022-09-18T14:44:54.564Z,-63
2022-09-18T14:47:26.778Z,-64
2022-09-18T14:49:53.893Z,-64
2022-09-18T14:52:24.185Z,-64
2022-09-18T14:54:53.909Z,-65
2022-09-18T14:57:23.850Z,-63
2022-09-18T14:59:52.941Z,-62
2022-09-18T15:02:34.679Z,-63
2022-09-18T15:05:03.852Z,-63
2022-09-18T15:07:30.515Z,-63
2022-09-18T15:10:00.431Z,-64
2022-09-18T15:12:30.542Z,-64
2022-09-18T15:14:58.705Z,-63
2022-09-18T15:17:27.619Z,-65
2022-09-18T15:20:15.962Z,-63
2022-09-18T15:22:42.705Z,-63
2022-09-18T15:25:16.480Z,-66
2022-09-18T15:27:44.937Z,-62
2022-09-18T15:30:18.648Z,-63
2022-09-18T15:32:51.215Z,-65
2022-09-18T15:35:23.700Z,-65
2022-09-18T15:38:00.908Z,-63
2022-09-18T15:40:33.437Z,-62
2022-09-18T15:43:03.373Z,-63
2022-09-18T15:45:44.699Z,-64
2022-09-18T15:48:33.957Z,-63
2022-09-18T15:51:18.377Z,-63
2022-09-18T15:54:01.550Z,-64
2022-09-18T15:56:29.846Z,-65
2022-09-18T15:58:58.795Z,-66
2022-09-18T16:01:29.499Z,-64
2022-09-18T16:04:07.916Z,-63
2022-09-18T16:06:42.529Z,-65
2022-09-18T16:09:23.904Z,-66
2022-09-18T16:11:50.316Z,-65
2022-09-18T16:14:43.929Z,-63
2022-09-18T16:17:28.599Z,-64
2022-09-18T16:20:00.224Z,-64
2022-09-18T16:22:29.582Z,-65
2022-09-18T16:24:57.660Z,-63
2022-09-18T16:27:25.610Z,-65
2022-09-18T16:29:51.951Z,-63
2022-09-18T16:32:20.181Z,-66
2022-09-18T16:34:47.325Z,-65
2022-09-18T16:37:17.005Z,-63
2022-09-18T16:39:44.152Z,-63
2022-09-18T16:42:18.709Z,-64
2022-09-18T16:44:46.007Z,-64
2022-09-18T16:47:14.603Z,-63
2022-09-18T16:49:46.852Z,-62
2022-09-18T16:52:13.819Z,-61
2022-09-18T16:54:40.197Z,-60
2022-09-18T16:57:12.435Z,-63
2022-09-18T16:59:41.783Z,-61
2022-09-18T17:02:09.093Z,-60
2022-09-18T17:04:35.672Z,-60
2022-09-18T17:07:03.300Z,-61
2022-09-18T17:09:30.266Z,-61
2022-09-18T17:11:56.796Z,-62
2022-09-18T17:14:24.350Z,-62
2022-09-18T17:16:51.307Z,-61
2022-09-18T17:19:18.206Z,-61
2022-09-18T17:21:44.753Z,-63
2022-09-18T17:24:11.576Z,-61
2022-09-18T17:26:39.711Z,-61
2022-09-18T17:29:06.323Z,-60
2022-09-18T17:31:32.806Z,-61
2022-09-18T17:33:59.213Z,-61
2022-09-18T17:36:25.561Z,-61
2022-09-18T17:38:52.230Z,-62
2022-09-18T17:41:19.476Z,-63
2022-09-18T17:43:51.511Z,-62
2022-09-18T17:46:17.930Z,-61
2022-09-18T17:48:44.292Z,-62
2022-09-18T17:51:15.292Z,-62
2022-09-18T17:53:43.632Z,-61
2022-09-18T17:56:14.940Z,-61
2022-09-18T17:58:43.896Z,-61
2022-09-18T18:01:12.759Z,-61
2022-09-18T18:03:39.295Z,-62
2022-09-18T18:06:05.998Z,-63
2022-09-18T18:08:32.504Z,-62
2022-09-18T18:11:07.342Z,-61
2022-09-18T18:13:36.800Z,-61
2022-09-18T18:16:09.112Z,-62
2022-09-18T18:18:37.034Z,-63
2022-09-18T18:21:05.203Z,-62
2022-09-18T18:23:32.526Z,-61
2022-09-18T18:26:04.620Z,-62
2022-09-18T18:28:32.664Z,-62
2022-09-18T18:31:07.555Z,-61
2022-09-18T18:33:36.275Z,-61
2022-09-18T18:36:20.854Z,-62
2022-09-18T18:38:50.164Z,-62
2022-09-18T18:41:19.073Z,-61
2022-09-18T18:43:45.766Z,-62
2022-09-18T18:46:15.429Z,-61
2022-09-18T18:48:43.545Z,-62
2022-09-18T18:51:13.971Z,-61
2022-09-18T18:53:43.832Z,-61
2022-09-18T18:56:13.396Z,-60
2022-09-18T18:58:40.800Z,-62
2022-09-18T19:01:09.316Z,-61
2022-09-18T19:03:39.965Z,-63
2022-09-18T19:06:06.692Z,-61
2022-09-18T19:08:35.574Z,-62
2022-09-18T19:11:04.898Z,-62
2022-09-18T19:13:41.206Z,-62
2022-09-18T19:16:07.747Z,-61
2022-09-18T19:18:34.154Z,-63
2022-09-18T19:21:00.497Z,-61
2022-09-18T19:23:26.948Z,-60
2022-09-18T19:25:57.672Z,-62
2022-09-18T19:28:24.326Z,-60
2022-09-18T19:30:53.612Z,-63
2022-09-18T19:33:21.063Z,-62
2022-09-18T19:35:47.382Z,-60
2022-09-18T19:38:16.149Z,-61
2022-09-18T19:40:42.749Z,-61
2022-09-18T19:43:14.810Z,-63
2022-09-18T19:45:43.759Z,-63
2022-09-18T19:48:21.548Z,-62
2022-09-18T19:50:48.075Z,-63
2022-09-18T19:53:15.218Z,-63
2022-09-18T19:55:47.541Z,-62
2022-09-18T19:58:15.575Z,-61
2022-09-18T20:00:43.678Z,-61
2022-09-18T20:03:10.905Z,-61
2022-09-18T20:05:42.313Z,-62
2022-09-18T20:08:09.419Z,-61
2022-09-18T20:10:37.798Z,-62
2022-09-18T20:13:05.202Z,-60
2022-09-18T20:15:31.559Z,-60
2022-09-18T20:17:58.299Z,-63
2022-09-18T20:20:25.960Z,-61
2022-09-18T20:22:53.812Z,-60
2022-09-18T20:25:20.940Z,-61
2022-09-18T20:27:47.521Z,-60
2022-09-18T20:30:14.245Z,-60
2022-09-18T20:32:41.281Z,-60
2022-09-18T20:35:08.001Z,-60
2022-09-18T20:37:34.469Z,-60
2022-09-18T20:40:04.685Z,-60
2022-09-18T20:42:32.644Z,-61
2022-09-18T20:45:02.289Z,-60
2022-09-18T20:47:34.975Z,-60
2022-09-18T20:50:10.032Z,-60
2022-09-18T20:52:39.068Z,-60
2022-09-18T20:55:14.353Z,-60
2022-09-18T20:57:41.715Z,-60
2022-09-18T21:00:10.272Z,-59
2022-09-18T21:02:37.648Z,-60
2022-09-18T21:05:08.590Z,-60
2022-09-18T21:07:34.934Z,-60
2022-09-18T21:10:01.460Z,-60
2022-09-18T21:12:38.132Z,-60
2022-09-18T21:15:07.486Z,-60
2022-09-18T21:17:33.825Z,-60
2022-09-18T21:20:02.076Z,-60
2022-09-18T21:22:30.244Z,-60
2022-09-18T21:24:56.545Z,-60
2022-09-18T21:27:22.946Z,-60
2022-09-18T21:29:49.282Z,-60
2022-09-18T21:32:15.704Z,-60
2022-09-18T21:34:43.850Z,-60
2022-09-18T21:37:12.032Z,-60
2022-09-18T21:39:38.933Z,-60
2022-09-18T21:42:07.279Z,-60
2022-09-18T21:44:37.768Z,-60
2022-09-18T21:47:07.310Z,-60
2022-09-18T21:49:34.506Z,-60
2022-09-18T21:52:04.431Z,-60
2022-09-18T21:54:31.863Z,-60
2022-09-18T21:56:59.004Z,-60
2022-09-18T21:59:35.841Z,-59
2022-09-18T22:02:03.377Z,-60
2022-09-18T22:04:32.318Z,-60
2022-09-18T22:07:01.302Z,-60
2022-09-18T22:09:30.894Z,-60
2022-09-18T22:11:58.205Z,-60
2022-09-18T22:14:28.567Z,-60
2022-09-18T22:16:56.261Z,-60
2022-09-18T22:19:22.933Z,-60
2022-09-18T22:21:50.626Z,-60
2022-09-18T22:24:20.736Z,-60
2022-09-18T22:27:08.409Z,-60
2022-09-18T22:29:38.248Z,-60
2022-09-18T22:32:05.070Z,-60
2022-09-18T22:34:34.712Z,-60
2022-09-18T22:37:01.616Z,-60
2022-09-18T22:39:28.585Z,-60
2022-09-18T22:41:55.222Z,-60
2022-09-18T22:44:22.525Z,-60
2022-09-18T22:46:51.856Z,-60
2022-09-18T22:49:19.248Z,-60
2022-09-18T22:51:46.111Z,-60
2022-09-18T22:54:13.966Z,-60
2022-09-18T22:56:46.073Z,-60
2022-09-18T22:59:15.210Z,-60
2022-09-18T23:01:48.855Z,-60
2022-09-18T23:04:17.937Z,-60
2022-09-18T23:06:45.584Z,-60
2022-09-18T23:09:13.762Z,-60
2022-09-18T23:11:41.530Z,-60
2022-09-18T23:14:13.807Z,-60
2022-09-18T23:16:40.260Z,-60
2022-09-18T23:19:11.849Z,-60
2022-09-18T23:21:39.105Z,-60
2022-09-18T23:24:09.065Z,-60
2022-09-18T23:26:39.932Z,-60
2022-09-18T23:29:09.696Z,-60
2022-09-18T23:31:38.725Z,-60
2022-09-18T23:34:07.841Z,-60
2022-09-18T23:36:40.026Z,-60
2022-09-18T23:39:15.836Z,-60
2022-09-18T23:41:42.638Z,-60
2022-09-18T23:44:12.381Z,-60
2022-09-18T23:46:39.324Z,-60
2022-09-18T23:49:08.321Z,-60
2022-09-18T23:51:37.469Z,-60
2022-09-18T23:54:05.651Z,-60
2022-09-18T23:56:37.034Z,-60
2022-09-18T23:59:06.421Z,-60
